Alexandria, Ohio
Current Conditions -  °F | °C
As of 10:54 AM on Wednesday 26 Nov 2014 (Local Time) from KVTA Reporting Station
Overcast Overcast  
Wind Chill: 34°   Ceiling: 3200
Heat Index: 34°   Visibility: 10mi
Dew Point: 26°   Wind: 3mph
Humidity: 73%   Direction: 20°NNE
Pressure: 30.12"   Gusts: NA
Location:  40.09°N, 82.61°W
Report Text: KVTA 261554Z AUTO 02003KT 10SM OVC032 01/M03 A3012 RMK AO2 SLP206 T00111033
Loading
Personal Weather Stations






























Interactive Weather Map New forecast layout! Learn more

10-Day Weather Forecast

Advertisements
Track Severe Weather on mobile